sensor_id;sensor_type;location;lat;lon;timestamp;P1;durP1;ratioP1;P2;durP2;ratioP2
40953;SDS011;26686;50.130;8.710;2023-02-23T00:04:51;25.65;;;21.95;;
40953;SDS011;26686;50.130;8.710;2023-02-23T00:09:52;24.13;;;21.77;;
40953;SDS011;26686;50.130;8.710;2023-02-23T00:14:55;26.83;;;23.90;;
40953;SDS011;26686;50.130;8.710;2023-02-23T00:19:59;24.45;;;21.52;;
40953;SDS011;26686;50.130;8.710;2023-02-23T00:25:02;26.73;;;23.92;;
40953;SDS011;26686;50.130;8.710;2023-02-23T00:30:10;26.83;;;23.00;;
40953;SDS011;26686;50.130;8.710;2023-02-23T00:35:12;27.55;;;22.90;;
40953;SDS011;26686;50.130;8.710;2023-02-23T00:40:19;24.13;;;21.52;;
40953;SDS011;26686;50.130;8.710;2023-02-23T00:45:22;30.08;;;23.35;;
40953;SDS011;26686;50.130;8.710;2023-02-23T00:50:24;25.65;;;21.95;;
40953;SDS011;26686;50.130;8.710;2023-02-23T00:55:26;25.27;;;22.67;;
40953;SDS011;26686;50.130;8.710;2023-02-23T01:00:27;26.70;;;21.90;;
40953;SDS011;26686;50.130;8.710;2023-02-23T01:05:33;23.95;;;21.42;;
40953;SDS011;26686;50.130;8.710;2023-02-23T01:10:41;24.65;;;21.98;;
40953;SDS011;26686;50.130;8.710;2023-02-23T01:15:44;25.67;;;21.38;;
40953;SDS011;26686;50.130;8.710;2023-02-23T01:20:48;26.33;;;22.17;;
40953;SDS011;26686;50.130;8.710;2023-02-23T01:25:51;27.33;;;23.08;;
40953;SDS011;26686;50.130;8.710;2023-02-23T01:30:52;26.67;;;23.65;;
40953;SDS011;26686;50.130;8.710;2023-02-23T01:35:57;27.52;;;24.15;;
40953;SDS011;26686;50.130;8.710;2023-02-23T01:40:59;27.23;;;24.27;;
40953;SDS011;26686;50.130;8.710;2023-02-23T01:46:02;27.85;;;23.45;;
40953;SDS011;26686;50.130;8.710;2023-02-23T01:51:08;29.73;;;25.55;;
40953;SDS011;26686;50.130;8.710;2023-02-23T01:56:20;27.75;;;24.55;;
40953;SDS011;26686;50.130;8.710;2023-02-23T02:01:26;27.05;;;24.17;;
40953;SDS011;26686;50.130;8.710;2023-02-23T02:06:29;28.92;;;24.70;;
40953;SDS011;26686;50.130;8.710;2023-02-23T02:11:33;29.42;;;26.38;;
40953;SDS011;26686;50.130;8.710;2023-02-23T02:16:47;28.35;;;25.35;;
40953;SDS011;26686;50.130;8.710;2023-02-23T02:38:00;28.80;;;25.25;;
40953;SDS011;26686;50.130;8.710;2023-02-23T02:43:15;31.70;;;24.92;;
40953;SDS011;26686;50.130;8.710;2023-02-23T02:48:32;28.23;;;25.27;;
40953;SDS011;26686;50.130;8.710;2023-02-23T02:58:56;31.17;;;25.85;;
40953;SDS011;26686;50.130;8.710;2023-02-23T03:03:58;29.35;;;26.00;;
40953;SDS011;26686;50.130;8.710;2023-02-23T03:09:28;27.55;;;24.23;;
40953;SDS011;26686;50.130;8.710;2023-02-23T03:15:15;28.95;;;24.65;;
40953;SDS011;26686;50.130;8.710;2023-02-23T03:20:42;32.55;;;26.48;;
40953;SDS011;26686;50.130;8.710;2023-02-23T03:26:08;27.98;;;24.98;;
40953;SDS011;26686;50.130;8.710;2023-02-23T03:31:36;30.17;;;26.98;;
40953;SDS011;26686;50.130;8.710;2023-02-23T03:37:06;26.67;;;23.90;;
40953;SDS011;26686;50.130;8.710;2023-02-23T03:42:34;28.52;;;25.40;;
40953;SDS011;26686;50.130;8.710;2023-02-23T03:47:56;29.33;;;25.85;;
40953;SDS011;26686;50.130;8.710;2023-02-23T03:53:20;31.92;;;25.05;;
40953;SDS011;26686;50.130;8.710;2023-02-23T03:58:49;29.10;;;24.90;;
40953;SDS011;26686;50.130;8.710;2023-02-23T04:04:16;27.67;;;24.67;;
40953;SDS011;26686;50.130;8.710;2023-02-23T04:09:38;29.10;;;25.23;;
40953;SDS011;26686;50.130;8.710;2023-02-23T04:20:26;39.58;;;28.35;;
40953;SDS011;26686;50.130;8.710;2023-02-23T04:25:28;30.02;;;26.90;;
40953;SDS011;26686;50.130;8.710;2023-02-23T04:30:30;31.70;;;28.17;;
40953;SDS011;26686;50.130;8.710;2023-02-23T04:35:32;30.45;;;26.33;;
40953;SDS011;26686;50.130;8.710;2023-02-23T04:40:34;31.92;;;27.25;;
40953;SDS011;26686;50.130;8.710;2023-02-23T04:45:36;32.17;;;27.40;;
40953;SDS011;26686;50.130;8.710;2023-02-23T04:50:38;29.90;;;26.80;;
40953;SDS011;26686;50.130;8.710;2023-02-23T04:55:39;29.88;;;26.75;;
40953;SDS011;26686;50.130;8.710;2023-02-23T05:00:42;33.95;;;29.33;;
40953;SDS011;26686;50.130;8.710;2023-02-23T05:05:44;29.83;;;26.65;;
40953;SDS011;26686;50.130;8.710;2023-02-23T05:10:45;31.60;;;28.20;;
40953;SDS011;26686;50.130;8.710;2023-02-23T05:15:47;33.50;;;29.98;;
40953;SDS011;26686;50.130;8.710;2023-02-23T05:20:49;33.63;;;27.77;;
40953;SDS011;26686;50.130;8.710;2023-02-23T05:25:50;35.88;;;29.33;;
40953;SDS011;26686;50.130;8.710;2023-02-23T05:30:54;34.97;;;28.27;;
40953;SDS011;26686;50.130;8.710;2023-02-23T05:35:56;35.33;;;29.83;;
40953;SDS011;26686;50.130;8.710;2023-02-23T05:41:02;35.60;;;30.40;;
40953;SDS011;26686;50.130;8.710;2023-02-23T05:46:08;35.42;;;28.80;;
40953;SDS011;26686;50.130;8.710;2023-02-23T05:51:13;36.28;;;29.73;;
40953;SDS011;26686;50.130;8.710;2023-02-23T05:56:16;35.45;;;30.92;;
40953;SDS011;26686;50.130;8.710;2023-02-23T06:01:20;31.88;;;25.60;;
40953;SDS011;26686;50.130;8.710;2023-02-23T06:06:22;27.27;;;24.38;;
40953;SDS011;26686;50.130;8.710;2023-02-23T06:11:25;28.77;;;25.02;;
40953;SDS011;26686;50.130;8.710;2023-02-23T06:16:27;30.38;;;27.08;;
40953;SDS011;26686;50.130;8.710;2023-02-23T06:21:28;31.67;;;26.85;;
40953;SDS011;26686;50.130;8.710;2023-02-23T06:26:30;32.58;;;28.02;;
40953;SDS011;26686;50.130;8.710;2023-02-23T06:31:32;32.90;;;29.23;;
40953;SDS011;26686;50.130;8.710;2023-02-23T06:36:34;34.47;;;29.73;;
40953;SDS011;26686;50.130;8.710;2023-02-23T06:41:36;38.75;;;28.75;;
40953;SDS011;26686;50.130;8.710;2023-02-23T06:46:38;36.05;;;29.02;;
40953;SDS011;26686;50.130;8.710;2023-02-23T06:51:39;38.17;;;31.33;;
40953;SDS011;26686;50.130;8.710;2023-02-23T06:56:42;38.97;;;30.80;;
40953;SDS011;26686;50.130;8.710;2023-02-23T07:01:44;38.10;;;30.55;;
40953;SDS011;26686;50.130;8.710;2023-02-23T07:06:46;38.25;;;29.52;;
40953;SDS011;26686;50.130;8.710;2023-02-23T07:11:47;39.35;;;30.70;;
40953;SDS011;26686;50.130;8.710;2023-02-23T07:16:49;40.67;;;32.08;;
40953;SDS011;26686;50.130;8.710;2023-02-23T07:21:51;41.80;;;32.95;;
40953;SDS011;26686;50.130;8.710;2023-02-23T07:26:53;40.45;;;32.53;;
40953;SDS011;26686;50.130;8.710;2023-02-23T07:31:55;37.70;;;30.42;;
40953;SDS011;26686;50.130;8.710;2023-02-23T07:36:56;35.28;;;29.95;;
40953;SDS011;26686;50.130;8.710;2023-02-23T07:41:58;38.72;;;30.02;;
40953;SDS011;26686;50.130;8.710;2023-02-23T07:47:01;39.65;;;31.67;;
40953;SDS011;26686;50.130;8.710;2023-02-23T07:52:03;36.00;;;31.50;;
40953;SDS011;26686;50.130;8.710;2023-02-23T07:57:06;37.13;;;30.83;;
40953;SDS011;26686;50.130;8.710;2023-02-23T08:02:10;33.90;;;29.50;;
40953;SDS011;26686;50.130;8.710;2023-02-23T08:07:15;40.05;;;31.98;;
40953;SDS011;26686;50.130;8.710;2023-02-23T08:12:17;39.00;;;30.85;;
40953;SDS011;26686;50.130;8.710;2023-02-23T08:17:20;34.08;;;28.52;;
40953;SDS011;26686;50.130;8.710;2023-02-23T08:22:21;36.08;;;29.95;;
40953;SDS011;26686;50.130;8.710;2023-02-23T08:27:24;34.60;;;30.35;;
40953;SDS011;26686;50.130;8.710;2023-02-23T08:32:27;35.13;;;29.63;;
40953;SDS011;26686;50.130;8.710;2023-02-23T08:37:30;34.70;;;29.80;;
40953;SDS011;26686;50.130;8.710;2023-02-23T08:42:33;39.78;;;29.95;;
40953;SDS011;26686;50.130;8.710;2023-02-23T08:47:35;35.80;;;30.48;;
40953;SDS011;26686;50.130;8.710;2023-02-23T08:52:37;34.65;;;29.30;;
40953;SDS011;26686;50.130;8.710;2023-02-23T08:57:39;33.72;;;28.17;;
40953;SDS011;26686;50.130;8.710;2023-02-23T09:02:41;39.30;;;31.67;;
40953;SDS011;26686;50.130;8.710;2023-02-23T09:07:44;35.70;;;30.50;;
40953;SDS011;26686;50.130;8.710;2023-02-23T09:12:46;36.70;;;31.38;;
40953;SDS011;26686;50.130;8.710;2023-02-23T09:17:50;38.45;;;31.52;;
40953;SDS011;26686;50.130;8.710;2023-02-23T09:22:52;36.67;;;31.55;;
40953;SDS011;26686;50.130;8.710;2023-02-23T09:27:54;33.72;;;29.80;;
40953;SDS011;26686;50.130;8.710;2023-02-23T09:32:57;37.08;;;29.85;;
40953;SDS011;26686;50.130;8.710;2023-02-23T09:37:59;37.05;;;30.83;;
40953;SDS011;26686;50.130;8.710;2023-02-23T09:48:15;39.58;;;30.23;;
40953;SDS011;26686;50.130;8.710;2023-02-23T09:59:03;34.00;;;29.13;;
40953;SDS011;26686;50.130;8.710;2023-02-23T10:19:58;32.42;;;26.95;;
40953;SDS011;26686;50.130;8.710;2023-02-23T10:25:20;33.25;;;26.17;;
40953;SDS011;26686;50.130;8.710;2023-02-23T10:30:29;28.35;;;24.77;;
40953;SDS011;26686;50.130;8.710;2023-02-23T10:35:33;26.27;;;23.58;;
40953;SDS011;26686;50.130;8.710;2023-02-23T10:40:34;23.80;;;21.05;;
40953;SDS011;26686;50.130;8.710;2023-02-23T10:45:40;24.67;;;20.73;;
40953;SDS011;26686;50.130;8.710;2023-02-23T10:50:46;24.90;;;20.83;;
40953;SDS011;26686;50.130;8.710;2023-02-23T10:55:59;25.98;;;22.48;;
40953;SDS011;26686;50.130;8.710;2023-02-23T11:01:03;24.38;;;20.73;;
40953;SDS011;26686;50.130;8.710;2023-02-23T11:06:06;21.52;;;19.15;;
40953;SDS011;26686;50.130;8.710;2023-02-23T11:11:29;22.17;;;19.92;;
40953;SDS011;26686;50.130;8.710;2023-02-23T11:16:32;23.55;;;20.77;;
40953;SDS011;26686;50.130;8.710;2023-02-23T11:21:39;22.33;;;19.38;;
40953;SDS011;26686;50.130;8.710;2023-02-23T11:26:42;20.83;;;18.73;;
40953;SDS011;26686;50.130;8.710;2023-02-23T11:31:46;20.13;;;17.58;;
40953;SDS011;26686;50.130;8.710;2023-02-23T11:36:58;19.23;;;17.00;;
40953;SDS011;26686;50.130;8.710;2023-02-23T11:42:03;20.10;;;17.98;;
40953;SDS011;26686;50.130;8.710;2023-02-23T11:47:18;23.48;;;17.02;;
40953;SDS011;26686;50.130;8.710;2023-02-23T11:52:23;17.35;;;15.55;;
40953;SDS011;26686;50.130;8.710;2023-02-23T11:57:29;15.40;;;13.82;;
40953;SDS011;26686;50.130;8.710;2023-02-23T12:02:34;16.33;;;14.63;;
40953;SDS011;26686;50.130;8.710;2023-02-23T12:18:39;12.38;;;11.00;;
40953;SDS011;26686;50.130;8.710;2023-02-23T12:23:44;12.73;;;11.43;;
40953;SDS011;26686;50.130;8.710;2023-02-23T12:29:41;13.35;;;10.13;;
40953;SDS011;26686;50.130;8.710;2023-02-23T12:39:51;13.30;;;11.63;;
40953;SDS011;26686;50.130;8.710;2023-02-23T12:44:58;14.10;;;9.95;;
40953;SDS011;26686;50.130;8.710;2023-02-23T12:50:16;12.55;;;10.60;;
40953;SDS011;26686;50.130;8.710;2023-02-23T13:00:44;14.27;;;10.25;;
40953;SDS011;26686;50.130;8.710;2023-02-23T13:11:23;13.75;;;9.77;;
40953;SDS011;26686;50.130;8.710;2023-02-23T13:16:41;11.73;;;7.55;;
40953;SDS011;26686;50.130;8.710;2023-02-23T13:32:23;8.30;;;5.75;;
40953;SDS011;26686;50.130;8.710;2023-02-23T13:37:34;5.32;;;4.65;;
40953;SDS011;26686;50.130;8.710;2023-02-23T13:53:41;7.43;;;4.18;;
40953;SDS011;26686;50.130;8.710;2023-02-23T13:58:51;6.35;;;3.92;;
40953;SDS011;26686;50.130;8.710;2023-02-23T14:03:58;6.57;;;4.45;;
40953;SDS011;26686;50.130;8.710;2023-02-23T14:09:07;7.43;;;4.15;;
40953;SDS011;26686;50.130;8.710;2023-02-23T14:19:37;7.47;;;5.07;;
40953;SDS011;26686;50.130;8.710;2023-02-23T14:24:41;6.10;;;4.72;;
40953;SDS011;26686;50.130;8.710;2023-02-23T14:29:44;6.32;;;5.38;;
40953;SDS011;26686;50.130;8.710;2023-02-23T14:35:07;6.20;;;5.38;;
40953;SDS011;26686;50.130;8.710;2023-02-23T14:40:33;6.38;;;4.93;;
40953;SDS011;26686;50.130;8.710;2023-02-23T14:45:41;7.80;;;5.25;;
40953;SDS011;26686;50.130;8.710;2023-02-23T14:50:46;7.07;;;6.18;;
40953;SDS011;26686;50.130;8.710;2023-02-23T14:55:48;7.53;;;5.95;;
40953;SDS011;26686;50.130;8.710;2023-02-23T15:00:50;6.55;;;5.18;;
40953;SDS011;26686;50.130;8.710;2023-02-23T15:05:55;8.27;;;6.60;;
40953;SDS011;26686;50.130;8.710;2023-02-23T15:11:04;8.80;;;6.22;;
40953;SDS011;26686;50.130;8.710;2023-02-23T15:16:15;8.25;;;6.75;;
40953;SDS011;26686;50.130;8.710;2023-02-23T15:21:36;8.63;;;6.75;;
40953;SDS011;26686;50.130;8.710;2023-02-23T15:26:41;9.90;;;8.05;;
40953;SDS011;26686;50.130;8.710;2023-02-23T15:31:45;9.50;;;7.45;;
40953;SDS011;26686;50.130;8.710;2023-02-23T15:37:05;20.48;;;15.50;;
40953;SDS011;26686;50.130;8.710;2023-02-23T15:42:13;11.18;;;9.18;;
40953;SDS011;26686;50.130;8.710;2023-02-23T15:47:19;9.45;;;7.00;;
40953;SDS011;26686;50.130;8.710;2023-02-23T15:52:28;7.85;;;5.97;;
40953;SDS011;26686;50.130;8.710;2023-02-23T16:02:44;8.98;;;7.20;;
40953;SDS011;26686;50.130;8.710;2023-02-23T16:13:02;7.82;;;7.03;;
40953;SDS011;26686;50.130;8.710;2023-02-23T16:18:08;10.65;;;7.20;;
40953;SDS011;26686;50.130;8.710;2023-02-23T16:28:44;9.35;;;7.20;;
40953;SDS011;26686;50.130;8.710;2023-02-23T16:39:01;8.73;;;7.80;;
40953;SDS011;26686;50.130;8.710;2023-02-23T16:44:05;11.95;;;7.80;;
40953;SDS011;26686;50.130;8.710;2023-02-23T16:49:09;10.43;;;8.68;;
40953;SDS011;26686;50.130;8.710;2023-02-23T16:54:12;8.88;;;7.97;;
40953;SDS011;26686;50.130;8.710;2023-02-23T16:59:15;13.52;;;8.30;;
40953;SDS011;26686;50.130;8.710;2023-02-23T17:04:20;10.48;;;8.35;;
40953;SDS011;26686;50.130;8.710;2023-02-23T17:09:22;11.77;;;9.47;;
40953;SDS011;26686;50.130;8.710;2023-02-23T17:14:25;11.25;;;8.52;;
40953;SDS011;26686;50.130;8.710;2023-02-23T17:19:28;10.75;;;9.50;;
40953;SDS011;26686;50.130;8.710;2023-02-23T17:24:29;11.00;;;8.63;;
40953;SDS011;26686;50.130;8.710;2023-02-23T17:29:31;12.90;;;9.07;;
40953;SDS011;26686;50.130;8.710;2023-02-23T17:34:33;10.88;;;9.73;;
40953;SDS011;26686;50.130;8.710;2023-02-23T17:39:36;11.60;;;10.40;;
40953;SDS011;26686;50.130;8.710;2023-02-23T17:49:42;12.93;;;11.63;;
40953;SDS011;26686;50.130;8.710;2023-02-23T17:54:43;13.00;;;11.50;;
40953;SDS011;26686;50.130;8.710;2023-02-23T17:59:45;14.70;;;11.93;;
40953;SDS011;26686;50.130;8.710;2023-02-23T18:04:47;16.63;;;13.75;;
40953;SDS011;26686;50.130;8.710;2023-02-23T18:09:50;17.08;;;14.40;;
40953;SDS011;26686;50.130;8.710;2023-02-23T18:14:51;15.25;;;13.50;;
40953;SDS011;26686;50.130;8.710;2023-02-23T18:19:53;15.98;;;14.27;;
40953;SDS011;26686;50.130;8.710;2023-02-23T18:24:54;17.75;;;13.95;;
40953;SDS011;26686;50.130;8.710;2023-02-23T18:29:58;16.20;;;14.48;;
40953;SDS011;26686;50.130;8.710;2023-02-23T18:34:59;16.10;;;14.40;;
40953;SDS011;26686;50.130;8.710;2023-02-23T18:40:01;16.80;;;15.00;;
40953;SDS011;26686;50.130;8.710;2023-02-23T18:45:02;16.00;;;14.43;;
40953;SDS011;26686;50.130;8.710;2023-02-23T18:50:04;17.15;;;14.68;;
40953;SDS011;26686;50.130;8.710;2023-02-23T18:55:07;18.38;;;14.93;;
40953;SDS011;26686;50.130;8.710;2023-02-23T19:00:09;17.52;;;15.18;;
40953;SDS011;26686;50.130;8.710;2023-02-23T19:05:14;17.80;;;15.90;;
40953;SDS011;26686;50.130;8.710;2023-02-23T19:10:19;15.82;;;14.15;;
40953;SDS011;26686;50.130;8.710;2023-02-23T19:15:21;16.33;;;14.65;;
40953;SDS011;26686;50.130;8.710;2023-02-23T19:20:23;16.17;;;14.30;;
40953;SDS011;26686;50.130;8.710;2023-02-23T19:25:24;15.82;;;14.18;;
40953;SDS011;26686;50.130;8.710;2023-02-23T19:30:26;13.88;;;12.10;;
40953;SDS011;26686;50.130;8.710;2023-02-23T19:35:27;13.55;;;12.15;;
40953;SDS011;26686;50.130;8.710;2023-02-23T19:40:29;14.10;;;12.60;;
40953;SDS011;26686;50.130;8.710;2023-02-23T19:45:30;15.93;;;13.85;;
40953;SDS011;26686;50.130;8.710;2023-02-23T19:50:32;16.20;;;14.50;;
40953;SDS011;26686;50.130;8.710;2023-02-23T19:55:36;15.37;;;13.73;;
40953;SDS011;26686;50.130;8.710;2023-02-23T20:00:38;15.05;;;12.85;;
40953;SDS011;26686;50.130;8.710;2023-02-23T20:05:39;15.38;;;13.30;;
40953;SDS011;26686;50.130;8.710;2023-02-23T20:10:42;14.90;;;13.30;;
40953;SDS011;26686;50.130;8.710;2023-02-23T20:15:44;15.13;;;13.50;;
40953;SDS011;26686;50.130;8.710;2023-02-23T20:20:46;14.80;;;13.05;;
40953;SDS011;26686;50.130;8.710;2023-02-23T20:25:47;14.30;;;12.63;;
40953;SDS011;26686;50.130;8.710;2023-02-23T20:30:49;14.70;;;12.80;;
40953;SDS011;26686;50.130;8.710;2023-02-23T20:35:50;14.35;;;12.25;;
40953;SDS011;26686;50.130;8.710;2023-02-23T20:40:52;18.63;;;14.98;;
40953;SDS011;26686;50.130;8.710;2023-02-23T20:45:54;15.57;;;13.65;;
40953;SDS011;26686;50.130;8.710;2023-02-23T20:51:01;14.73;;;13.13;;
40953;SDS011;26686;50.130;8.710;2023-02-23T20:56:06;15.27;;;13.25;;
40953;SDS011;26686;50.130;8.710;2023-02-23T21:01:12;15.43;;;12.70;;
40953;SDS011;26686;50.130;8.710;2023-02-23T21:06:15;15.10;;;12.77;;
40953;SDS011;26686;50.130;8.710;2023-02-23T21:11:19;13.38;;;11.50;;
40953;SDS011;26686;50.130;8.710;2023-02-23T21:16:23;14.93;;;11.47;;
40953;SDS011;26686;50.130;8.710;2023-02-23T21:21:25;15.65;;;12.00;;
40953;SDS011;26686;50.130;8.710;2023-02-23T21:26:30;15.63;;;13.70;;
40953;SDS011;26686;50.130;8.710;2023-02-23T21:31:31;14.50;;;12.90;;
40953;SDS011;26686;50.130;8.710;2023-02-23T21:36:33;16.63;;;13.68;;
40953;SDS011;26686;50.130;8.710;2023-02-23T21:41:35;16.25;;;13.90;;
40953;SDS011;26686;50.130;8.710;2023-02-23T21:46:38;20.60;;;15.63;;
40953;SDS011;26686;50.130;8.710;2023-02-23T21:51:40;18.15;;;15.57;;
40953;SDS011;26686;50.130;8.710;2023-02-23T21:56:42;20.27;;;15.85;;
40953;SDS011;26686;50.130;8.710;2023-02-23T22:01:44;20.58;;;16.17;;
40953;SDS011;26686;50.130;8.710;2023-02-23T22:06:47;19.92;;;16.10;;
40953;SDS011;26686;50.130;8.710;2023-02-23T22:11:49;21.77;;;16.90;;
40953;SDS011;26686;50.130;8.710;2023-02-23T22:16:50;22.17;;;16.10;;
40953;SDS011;26686;50.130;8.710;2023-02-23T22:21:52;19.90;;;17.02;;
40953;SDS011;26686;50.130;8.710;2023-02-23T22:26:55;17.55;;;15.50;;
40953;SDS011;26686;50.130;8.710;2023-02-23T22:31:57;20.17;;;15.60;;
40953;SDS011;26686;50.130;8.710;2023-02-23T22:36:59;18.65;;;15.05;;
40953;SDS011;26686;50.130;8.710;2023-02-23T22:42:01;22.23;;;15.57;;
40953;SDS011;26686;50.130;8.710;2023-02-23T22:47:09;18.75;;;15.32;;
40953;SDS011;26686;50.130;8.710;2023-02-23T22:52:11;19.85;;;16.27;;
40953;SDS011;26686;50.130;8.710;2023-02-23T22:57:13;19.52;;;16.02;;
40953;SDS011;26686;50.130;8.710;2023-02-23T23:02:15;20.83;;;16.55;;
40953;SDS011;26686;50.130;8.710;2023-02-23T23:07:16;21.92;;;16.88;;
40953;SDS011;26686;50.130;8.710;2023-02-23T23:12:20;21.83;;;16.45;;
40953;SDS011;26686;50.130;8.710;2023-02-23T23:17:22;20.98;;;17.15;;
40953;SDS011;26686;50.130;8.710;2023-02-23T23:22:23;23.42;;;17.50;;
40953;SDS011;26686;50.130;8.710;2023-02-23T23:27:30;20.75;;;16.52;;
40953;SDS011;26686;50.130;8.710;2023-02-23T23:32:33;22.00;;;16.98;;
40953;SDS011;26686;50.130;8.710;2023-02-23T23:37:35;20.92;;;16.42;;
40953;SDS011;26686;50.130;8.710;2023-02-23T23:42:41;17.75;;;14.35;;
40953;SDS011;26686;50.130;8.710;2023-02-23T23:47:46;19.83;;;14.80;;
40953;SDS011;26686;50.130;8.710;2023-02-23T23:52:47;20.75;;;15.52;;
40953;SDS011;26686;50.130;8.710;2023-02-23T23:57:50;17.77;;;14.70;;
